sensor_id;sensor_type;location;lat;lon;timestamp;P1;durP1;ratioP1;P2;durP2;ratioP2
25717;SDS011;13574;52.040;5.692;2023-04-01T00:00:28;14.20;;;8.05;;
25717;SDS011;13574;52.040;5.692;2023-04-01T00:02:54;12.07;;;7.50;;
25717;SDS011;13574;52.040;5.692;2023-04-01T00:05:20;13.00;;;7.53;;
25717;SDS011;13574;52.040;5.692;2023-04-01T00:07:46;14.48;;;8.00;;
25717;SDS011;13574;52.040;5.692;2023-04-01T00:10:12;12.07;;;7.68;;
25717;SDS011;13574;52.040;5.692;2023-04-01T00:12:38;16.00;;;8.18;;
25717;SDS011;13574;52.040;5.692;2023-04-01T00:15:06;17.38;;;8.60;;
25717;SDS011;13574;52.040;5.692;2023-04-01T00:17:34;15.77;;;8.48;;
25717;SDS011;13574;52.040;5.692;2023-04-01T00:20:00;17.17;;;9.35;;
25717;SDS011;13574;52.040;5.692;2023-04-01T00:22:27;17.63;;;8.85;;
25717;SDS011;13574;52.040;5.692;2023-04-01T00:24:53;15.90;;;8.90;;
25717;SDS011;13574;52.040;5.692;2023-04-01T00:27:19;17.67;;;9.18;;
25717;SDS011;13574;52.040;5.692;2023-04-01T00:29:45;17.48;;;9.60;;
25717;SDS011;13574;52.040;5.692;2023-04-01T00:32:12;17.00;;;9.50;;
25717;SDS011;13574;52.040;5.692;2023-04-01T00:34:39;20.17;;;11.25;;
25717;SDS011;13574;52.040;5.692;2023-04-01T00:37:06;18.70;;;10.80;;
25717;SDS011;13574;52.040;5.692;2023-04-01T00:39:32;20.42;;;11.45;;
25717;SDS011;13574;52.040;5.692;2023-04-01T00:41:59;19.92;;;11.85;;
25717;SDS011;13574;52.040;5.692;2023-04-01T00:44:28;20.52;;;10.85;;
25717;SDS011;13574;52.040;5.692;2023-04-01T00:46:57;21.88;;;12.65;;
25717;SDS011;13574;52.040;5.692;2023-04-01T00:49:23;28.35;;;13.35;;
25717;SDS011;13574;52.040;5.692;2023-04-01T00:51:53;22.40;;;12.85;;
25717;SDS011;13574;52.040;5.692;2023-04-01T00:54:22;20.23;;;12.25;;
25717;SDS011;13574;52.040;5.692;2023-04-01T00:59:43;25.45;;;12.48;;
25717;SDS011;13574;52.040;5.692;2023-04-01T01:02:12;28.73;;;12.60;;
25717;SDS011;13574;52.040;5.692;2023-04-01T01:04:40;30.45;;;13.05;;
25717;SDS011;13574;52.040;5.692;2023-04-01T01:10:11;29.52;;;13.15;;
25717;SDS011;13574;52.040;5.692;2023-04-01T01:13:17;27.50;;;13.68;;
25717;SDS011;13574;52.040;5.692;2023-04-01T01:19:41;26.73;;;12.85;;
25717;SDS011;13574;52.040;5.692;2023-04-01T01:28:35;25.98;;;11.15;;
25717;SDS011;13574;52.040;5.692;2023-04-01T01:30:45;24.23;;;11.45;;
25717;SDS011;13574;52.040;5.692;2023-04-01T01:36:01;30.67;;;12.77;;
25717;SDS011;13574;52.040;5.692;2023-04-01T01:38:31;33.50;;;13.13;;
25717;SDS011;13574;52.040;5.692;2023-04-01T01:40:58;30.92;;;12.73;;
25717;SDS011;13574;52.040;5.692;2023-04-01T01:43:30;29.50;;;12.93;;
25717;SDS011;13574;52.040;5.692;2023-04-01T01:46:06;36.80;;;13.20;;
25717;SDS011;13574;52.040;5.692;2023-04-01T01:48:38;34.22;;;13.90;;
25717;SDS011;13574;52.040;5.692;2023-04-01T01:51:06;27.55;;;13.25;;
25717;SDS011;13574;52.040;5.692;2023-04-01T01:53:32;29.90;;;13.70;;
25717;SDS011;13574;52.040;5.692;2023-04-01T01:55:58;31.60;;;14.25;;
25717;SDS011;13574;52.040;5.692;2023-04-01T02:01:02;40.50;;;16.42;;
25717;SDS011;13574;52.040;5.692;2023-04-01T02:03:32;42.08;;;17.52;;
25717;SDS011;13574;52.040;5.692;2023-04-01T02:06:00;34.97;;;16.27;;
25717;SDS011;13574;52.040;5.692;2023-04-01T02:11:02;38.50;;;16.75;;
25717;SDS011;13574;52.040;5.692;2023-04-01T02:15:59;44.70;;;17.70;;
25717;SDS011;13574;52.040;5.692;2023-04-01T02:18:33;47.08;;;18.40;;
25717;SDS011;13574;52.040;5.692;2023-04-01T02:21:02;43.07;;;16.33;;
25717;SDS011;13574;52.040;5.692;2023-04-01T02:23:29;39.45;;;16.17;;
25717;SDS011;13574;52.040;5.692;2023-04-01T02:25:59;40.08;;;15.30;;
25717;SDS011;13574;52.040;5.692;2023-04-01T02:28:25;34.03;;;14.02;;
25717;SDS011;13574;52.040;5.692;2023-04-01T02:30:53;37.13;;;13.68;;
25717;SDS011;13574;52.040;5.692;2023-04-01T02:33:19;39.67;;;13.77;;
25717;SDS011;13574;52.040;5.692;2023-04-01T02:35:46;31.50;;;12.32;;
25717;SDS011;13574;52.040;5.692;2023-04-01T02:38:12;35.42;;;12.07;;
25717;SDS011;13574;52.040;5.692;2023-04-01T02:40:44;29.98;;;11.90;;
25717;SDS011;13574;52.040;5.692;2023-04-01T02:45:46;32.22;;;11.10;;
25717;SDS011;13574;52.040;5.692;2023-04-01T02:48:12;26.98;;;10.85;;
25717;SDS011;13574;52.040;5.692;2023-04-01T02:50:39;30.63;;;11.73;;
25717;SDS011;13574;52.040;5.692;2023-04-01T02:53:05;25.52;;;10.20;;
25717;SDS011;13574;52.040;5.692;2023-04-01T02:55:31;27.70;;;10.70;;
25717;SDS011;13574;52.040;5.692;2023-04-01T02:57:57;23.92;;;10.10;;
25717;SDS011;13574;52.040;5.692;2023-04-01T03:00:24;24.83;;;9.88;;
25717;SDS011;13574;52.040;5.692;2023-04-01T03:02:50;22.08;;;10.20;;
25717;SDS011;13574;52.040;5.692;2023-04-01T03:05:15;22.00;;;9.48;;
25717;SDS011;13574;52.040;5.692;2023-04-01T03:07:41;21.50;;;10.05;;
25717;SDS011;13574;52.040;5.692;2023-04-01T03:10:07;21.77;;;9.82;;
25717;SDS011;13574;52.040;5.692;2023-04-01T03:12:33;24.83;;;9.43;;
25717;SDS011;13574;52.040;5.692;2023-04-01T03:14:59;22.42;;;9.38;;
25717;SDS011;13574;52.040;5.692;2023-04-01T03:17:24;22.42;;;9.50;;
25717;SDS011;13574;52.040;5.692;2023-04-01T03:19:50;19.08;;;8.98;;
25717;SDS011;13574;52.040;5.692;2023-04-01T03:22:16;24.70;;;9.15;;
25717;SDS011;13574;52.040;5.692;2023-04-01T03:24:43;21.65;;;10.27;;
25717;SDS011;13574;52.040;5.692;2023-04-01T03:27:09;21.38;;;10.68;;
25717;SDS011;13574;52.040;5.692;2023-04-01T03:29:35;23.17;;;10.45;;
25717;SDS011;13574;52.040;5.692;2023-04-01T03:32:00;19.42;;;10.55;;
25717;SDS011;13574;52.040;5.692;2023-04-01T03:34:26;23.00;;;10.95;;
25717;SDS011;13574;52.040;5.692;2023-04-01T03:36:52;20.67;;;10.95;;
25717;SDS011;13574;52.040;5.692;2023-04-01T03:39:17;24.73;;;11.25;;
25717;SDS011;13574;52.040;5.692;2023-04-01T03:41:44;24.95;;;10.77;;
25717;SDS011;13574;52.040;5.692;2023-04-01T03:44:10;21.05;;;11.63;;
25717;SDS011;13574;52.040;5.692;2023-04-01T03:46:36;17.95;;;10.77;;
25717;SDS011;13574;52.040;5.692;2023-04-01T03:49:02;22.38;;;11.90;;
25717;SDS011;13574;52.040;5.692;2023-04-01T03:51:36;20.63;;;11.48;;
25717;SDS011;13574;52.040;5.692;2023-04-01T03:54:02;20.65;;;11.45;;
25717;SDS011;13574;52.040;5.692;2023-04-01T03:56:28;20.80;;;10.60;;
25717;SDS011;13574;52.040;5.692;2023-04-01T03:58:54;21.35;;;12.07;;
25717;SDS011;13574;52.040;5.692;2023-04-01T04:01:20;20.00;;;11.85;;
25717;SDS011;13574;52.040;5.692;2023-04-01T04:03:47;23.30;;;11.30;;
25717;SDS011;13574;52.040;5.692;2023-04-01T04:06:14;23.40;;;12.38;;
25717;SDS011;13574;52.040;5.692;2023-04-01T04:08:41;19.30;;;11.13;;
25717;SDS011;13574;52.040;5.692;2023-04-01T04:11:07;20.85;;;12.10;;
25717;SDS011;13574;52.040;5.692;2023-04-01T04:13:33;20.52;;;12.07;;
25717;SDS011;13574;52.040;5.692;2023-04-01T04:15:59;20.35;;;12.20;;
25717;SDS011;13574;52.040;5.692;2023-04-01T04:18:24;22.02;;;12.77;;
25717;SDS011;13574;52.040;5.692;2023-04-01T04:20:50;21.70;;;11.20;;
25717;SDS011;13574;52.040;5.692;2023-04-01T04:23:16;21.77;;;11.30;;
25717;SDS011;13574;52.040;5.692;2023-04-01T04:25:56;21.77;;;11.70;;
25717;SDS011;13574;52.040;5.692;2023-04-01T04:30:50;19.90;;;10.10;;
25717;SDS011;13574;52.040;5.692;2023-04-01T04:33:16;19.27;;;10.43;;
25717;SDS011;13574;52.040;5.692;2023-04-01T04:35:41;19.02;;;10.05;;
25717;SDS011;13574;52.040;5.692;2023-04-01T04:38:07;16.88;;;8.77;;
25717;SDS011;13574;52.040;5.692;2023-04-01T04:40:33;15.15;;;9.10;;
25717;SDS011;13574;52.040;5.692;2023-04-01T04:43:01;18.60;;;8.73;;
25717;SDS011;13574;52.040;5.692;2023-04-01T04:45:27;15.98;;;8.77;;
25717;SDS011;13574;52.040;5.692;2023-04-01T04:47:53;19.95;;;9.20;;
25717;SDS011;13574;52.040;5.692;2023-04-01T04:50:18;14.80;;;8.20;;
25717;SDS011;13574;52.040;5.692;2023-04-01T04:52:44;17.85;;;9.27;;
25717;SDS011;13574;52.040;5.692;2023-04-01T04:55:10;13.10;;;8.10;;
25717;SDS011;13574;52.040;5.692;2023-04-01T04:57:35;15.70;;;8.00;;
25717;SDS011;13574;52.040;5.692;2023-04-01T05:00:01;14.55;;;8.27;;
25717;SDS011;13574;52.040;5.692;2023-04-01T05:02:27;15.43;;;8.60;;
25717;SDS011;13574;52.040;5.692;2023-04-01T05:04:52;17.23;;;8.60;;
25717;SDS011;13574;52.040;5.692;2023-04-01T05:07:18;16.73;;;7.78;;
25717;SDS011;13574;52.040;5.692;2023-04-01T05:09:44;16.67;;;7.47;;
25717;SDS011;13574;52.040;5.692;2023-04-01T05:12:10;13.95;;;7.68;;
25717;SDS011;13574;52.040;5.692;2023-04-01T05:14:38;13.65;;;7.45;;
25717;SDS011;13574;52.040;5.692;2023-04-01T05:17:04;13.65;;;7.28;;
25717;SDS011;13574;52.040;5.692;2023-04-01T05:19:33;15.85;;;7.70;;
25717;SDS011;13574;52.040;5.692;2023-04-01T05:21:58;14.00;;;7.40;;
25717;SDS011;13574;52.040;5.692;2023-04-01T05:24:24;15.02;;;7.25;;
25717;SDS011;13574;52.040;5.692;2023-04-01T05:26:50;14.40;;;7.97;;
25717;SDS011;13574;52.040;5.692;2023-04-01T05:29:15;15.38;;;7.85;;
25717;SDS011;13574;52.040;5.692;2023-04-01T05:31:41;15.63;;;8.30;;
25717;SDS011;13574;52.040;5.692;2023-04-01T05:34:06;19.25;;;8.35;;
25717;SDS011;13574;52.040;5.692;2023-04-01T05:36:32;18.52;;;9.10;;
25717;SDS011;13574;52.040;5.692;2023-04-01T05:38:59;17.45;;;8.25;;
25717;SDS011;13574;52.040;5.692;2023-04-01T05:41:24;16.15;;;8.23;;
25717;SDS011;13574;52.040;5.692;2023-04-01T05:43:50;16.20;;;8.70;;
25717;SDS011;13574;52.040;5.692;2023-04-01T05:46:16;17.25;;;8.48;;
25717;SDS011;13574;52.040;5.692;2023-04-01T05:48:41;14.20;;;7.53;;
25717;SDS011;13574;52.040;5.692;2023-04-01T05:51:12;14.98;;;7.60;;
25717;SDS011;13574;52.040;5.692;2023-04-01T05:56:04;13.05;;;6.38;;
25717;SDS011;13574;52.040;5.692;2023-04-01T05:58:33;13.23;;;6.85;;
25717;SDS011;13574;52.040;5.692;2023-04-01T06:01:06;13.32;;;6.97;;
25717;SDS011;13574;52.040;5.692;2023-04-01T06:03:36;14.63;;;7.25;;
25717;SDS011;13574;52.040;5.692;2023-04-01T06:06:01;17.20;;;8.18;;
25717;SDS011;13574;52.040;5.692;2023-04-01T06:08:29;17.50;;;8.73;;
25717;SDS011;13574;52.040;5.692;2023-04-01T06:19:04;17.98;;;7.85;;
25717;SDS011;13574;52.040;5.692;2023-04-01T06:24:09;16.23;;;7.93;;
25717;SDS011;13574;52.040;5.692;2023-04-01T06:26:44;15.80;;;7.88;;
25717;SDS011;13574;52.040;5.692;2023-04-01T06:29:40;12.48;;;6.05;;
25717;SDS011;13574;52.040;5.692;2023-04-01T06:43:39;7.88;;;3.80;;
25717;SDS011;13574;52.040;5.692;2023-04-01T06:49:21;6.00;;;3.22;;
25717;SDS011;13574;52.040;5.692;2023-04-01T06:52:00;9.13;;;4.05;;
25717;SDS011;13574;52.040;5.692;2023-04-01T06:54:37;7.20;;;3.53;;
25717;SDS011;13574;52.040;5.692;2023-04-01T06:59:45;5.72;;;3.10;;
25717;SDS011;13574;52.040;5.692;2023-04-01T07:02:22;6.20;;;3.30;;
25717;SDS011;13574;52.040;5.692;2023-04-01T07:04:53;6.40;;;3.17;;
25717;SDS011;13574;52.040;5.692;2023-04-01T07:07:33;7.60;;;3.25;;
25717;SDS011;13574;52.040;5.692;2023-04-01T07:10:06;6.47;;;3.63;;
25717;SDS011;13574;52.040;5.692;2023-04-01T07:12:53;7.70;;;3.38;;
25717;SDS011;13574;52.040;5.692;2023-04-01T07:15:28;6.78;;;3.17;;
25717;SDS011;13574;52.040;5.692;2023-04-01T07:18:01;8.00;;;3.53;;
25717;SDS011;13574;52.040;5.692;2023-04-01T07:20:32;7.18;;;3.47;;
25717;SDS011;13574;52.040;5.692;2023-04-01T07:23:06;5.97;;;3.40;;
25717;SDS011;13574;52.040;5.692;2023-04-01T07:25:38;6.55;;;3.60;;
25717;SDS011;13574;52.040;5.692;2023-04-01T07:41:26;6.97;;;2.97;;
25717;SDS011;13574;52.040;5.692;2023-04-01T07:44:02;4.88;;;2.72;;
25717;SDS011;13574;52.040;5.692;2023-04-01T07:46:37;5.30;;;2.38;;
25717;SDS011;13574;52.040;5.692;2023-04-01T08:03:14;4.03;;;2.35;;
25717;SDS011;13574;52.040;5.692;2023-04-01T08:05:47;4.68;;;2.25;;
25717;SDS011;13574;52.040;5.692;2023-04-01T08:11:21;6.15;;;2.80;;
25717;SDS011;13574;52.040;5.692;2023-04-01T08:14:12;5.75;;;2.42;;
25717;SDS011;13574;52.040;5.692;2023-04-01T08:22:38;9.85;;;3.20;;
25717;SDS011;13574;52.040;5.692;2023-04-01T08:25:09;6.03;;;2.83;;
25717;SDS011;13574;52.040;5.692;2023-04-01T08:27:41;6.25;;;3.20;;
25717;SDS011;13574;52.040;5.692;2023-04-01T08:30:18;6.40;;;3.25;;
25717;SDS011;13574;52.040;5.692;2023-04-01T08:32:54;5.68;;;3.38;;
25717;SDS011;13574;52.040;5.692;2023-04-01T08:35:29;4.97;;;3.25;;
25717;SDS011;13574;52.040;5.692;2023-04-01T08:37:59;6.63;;;3.70;;
25717;SDS011;13574;52.040;5.692;2023-04-01T08:45:43;6.28;;;4.03;;
25717;SDS011;13574;52.040;5.692;2023-04-01T08:48:27;4.75;;;3.05;;
25717;SDS011;13574;52.040;5.692;2023-04-01T08:57:13;8.63;;;3.95;;
25717;SDS011;13574;52.040;5.692;2023-04-01T09:02:55;7.53;;;4.30;;
25717;SDS011;13574;52.040;5.692;2023-04-01T09:13:50;11.68;;;6.53;;
25717;SDS011;13574;52.040;5.692;2023-04-01T09:16:47;13.02;;;6.75;;
25717;SDS011;13574;52.040;5.692;2023-04-01T09:19:41;11.45;;;6.10;;
25717;SDS011;13574;52.040;5.692;2023-04-01T09:28:11;13.05;;;6.18;;
25717;SDS011;13574;52.040;5.692;2023-04-01T09:33:49;11.65;;;6.22;;
25717;SDS011;13574;52.040;5.692;2023-04-01T09:36:43;10.20;;;6.18;;
25717;SDS011;13574;52.040;5.692;2023-04-01T09:44:57;12.43;;;6.60;;
25717;SDS011;13574;52.040;5.692;2023-04-01T09:47:28;12.93;;;7.50;;
25717;SDS011;13574;52.040;5.692;2023-04-01T10:23:22;11.55;;;7.35;;
25717;SDS011;13574;52.040;5.692;2023-04-01T10:26:16;9.80;;;6.40;;
25717;SDS011;13574;52.040;5.692;2023-04-01T10:40:00;12.63;;;8.45;;
25717;SDS011;13574;52.040;5.692;2023-04-01T10:56:49;18.70;;;14.25;;
25717;SDS011;13574;52.040;5.692;2023-04-01T11:07:53;7.15;;;4.63;;
25717;SDS011;13574;52.040;5.692;2023-04-01T11:24:48;8.85;;;5.40;;
25717;SDS011;13574;52.040;5.692;2023-04-01T11:30:32;7.32;;;5.10;;
25717;SDS011;13574;52.040;5.692;2023-04-01T11:44:24;6.72;;;3.60;;
25717;SDS011;13574;52.040;5.692;2023-04-01T12:06:58;27.60;;;18.65;;
25717;SDS011;13574;52.040;5.692;2023-04-01T12:20:51;6.68;;;3.80;;
25717;SDS011;13574;52.040;5.692;2023-04-01T12:51:57;8.23;;;4.97;;
25717;SDS011;13574;52.040;5.692;2023-04-01T13:10:42;7.57;;;4.50;;
25717;SDS011;13574;52.040;5.692;2023-04-01T13:18:51;8.77;;;4.47;;
25717;SDS011;13574;52.040;5.692;2023-04-01T13:35:54;6.75;;;3.67;;
25717;SDS011;13574;52.040;5.692;2023-04-01T13:38:42;10.88;;;3.53;;
25717;SDS011;13574;52.040;5.692;2023-04-01T13:43:58;5.25;;;3.58;;
25717;SDS011;13574;52.040;5.692;2023-04-01T14:01:00;8.20;;;5.40;;
25717;SDS011;13574;52.040;5.692;2023-04-01T14:06:46;7.93;;;3.60;;
25717;SDS011;13574;52.040;5.692;2023-04-01T14:15:07;7.43;;;3.70;;
25717;SDS011;13574;52.040;5.692;2023-04-01T14:20:33;5.20;;;3.28;;
25717;SDS011;13574;52.040;5.692;2023-04-01T14:28:17;7.40;;;5.18;;
25717;SDS011;13574;52.040;5.692;2023-04-01T14:31:02;11.38;;;5.75;;
25717;SDS011;13574;52.040;5.692;2023-04-01T14:36:32;17.92;;;14.20;;
25717;SDS011;13574;52.040;5.692;2023-04-01T14:50:11;17.17;;;12.20;;
25717;SDS011;13574;52.040;5.692;2023-04-01T14:52:48;15.63;;;11.98;;
25717;SDS011;13574;52.040;5.692;2023-04-01T14:58:08;12.70;;;9.48;;
25717;SDS011;13574;52.040;5.692;2023-04-01T15:00:41;12.15;;;9.38;;
25717;SDS011;13574;52.040;5.692;2023-04-01T15:08:29;8.68;;;5.05;;
25717;SDS011;13574;52.040;5.692;2023-04-01T15:19:31;8.20;;;5.32;;
25717;SDS011;13574;52.040;5.692;2023-04-01T15:22:28;8.07;;;5.18;;
25717;SDS011;13574;52.040;5.692;2023-04-01T15:25:23;8.82;;;5.70;;
25717;SDS011;13574;52.040;5.692;2023-04-01T15:33:38;9.07;;;5.60;;
25717;SDS011;13574;52.040;5.692;2023-04-01T15:36:15;8.85;;;5.57;;
25717;SDS011;13574;52.040;5.692;2023-04-01T15:44:37;8.73;;;5.30;;
25717;SDS011;13574;52.040;5.692;2023-04-01T15:47:28;8.02;;;5.15;;
25717;SDS011;13574;52.040;5.692;2023-04-01T15:50:17;8.40;;;5.40;;
25717;SDS011;13574;52.040;5.692;2023-04-01T15:53:11;8.95;;;5.55;;
25717;SDS011;13574;52.040;5.692;2023-04-01T16:04:05;7.95;;;5.50;;
25717;SDS011;13574;52.040;5.692;2023-04-01T16:10:17;8.38;;;5.32;;
25717;SDS011;13574;52.040;5.692;2023-04-01T16:26:26;8.05;;;5.82;;
25717;SDS011;13574;52.040;5.692;2023-04-01T16:29:02;9.45;;;6.88;;
25717;SDS011;13574;52.040;5.692;2023-04-01T16:31:38;7.63;;;5.30;;
25717;SDS011;13574;52.040;5.692;2023-04-01T16:34:21;8.38;;;5.75;;
25717;SDS011;13574;52.040;5.692;2023-04-01T16:50:30;7.80;;;5.65;;
25717;SDS011;13574;52.040;5.692;2023-04-01T16:55:54;6.68;;;4.70;;
25717;SDS011;13574;52.040;5.692;2023-04-01T16:58:34;7.53;;;5.30;;
25717;SDS011;13574;52.040;5.692;2023-04-01T17:12:38;9.63;;;6.75;;
25717;SDS011;13574;52.040;5.692;2023-04-01T17:18:00;9.43;;;6.20;;
25717;SDS011;13574;52.040;5.692;2023-04-01T17:20:53;9.20;;;6.07;;
25717;SDS011;13574;52.040;5.692;2023-04-01T17:23:34;8.93;;;5.63;;
25717;SDS011;13574;52.040;5.692;2023-04-01T17:31:21;12.18;;;7.47;;
25717;SDS011;13574;52.040;5.692;2023-04-01T17:45:46;12.02;;;6.70;;
25717;SDS011;13574;52.040;5.692;2023-04-01T17:51:19;11.50;;;6.35;;
25717;SDS011;13574;52.040;5.692;2023-04-01T17:59:24;11.57;;;6.90;;
25717;SDS011;13574;52.040;5.692;2023-04-01T18:07:48;13.85;;;10.77;;
25717;SDS011;13574;52.040;5.692;2023-04-01T18:10:20;13.27;;;9.23;;
25717;SDS011;13574;52.040;5.692;2023-04-01T18:13:05;10.30;;;7.30;;
25717;SDS011;13574;52.040;5.692;2023-04-01T18:21:22;10.13;;;6.88;;
25717;SDS011;13574;52.040;5.692;2023-04-01T18:24:06;11.07;;;8.07;;
25717;SDS011;13574;52.040;5.692;2023-04-01T18:27:06;9.18;;;6.40;;
25717;SDS011;13574;52.040;5.692;2023-04-01T18:29:45;12.32;;;7.97;;
25717;SDS011;13574;52.040;5.692;2023-04-01T18:38:16;10.15;;;6.95;;
25717;SDS011;13574;52.040;5.692;2023-04-01T18:46:48;11.38;;;7.57;;
25717;SDS011;13574;52.040;5.692;2023-04-01T18:49:21;11.50;;;7.22;;
25717;SDS011;13574;52.040;5.692;2023-04-01T18:51:54;9.75;;;6.88;;
25717;SDS011;13574;52.040;5.692;2023-04-01T18:54:30;10.30;;;7.03;;
25717;SDS011;13574;52.040;5.692;2023-04-01T18:57:02;9.95;;;6.93;;
25717;SDS011;13574;52.040;5.692;2023-04-01T18:59:39;8.73;;;6.20;;
25717;SDS011;13574;52.040;5.692;2023-04-01T19:05:00;8.88;;;6.57;;
25717;SDS011;13574;52.040;5.692;2023-04-01T19:10:16;8.93;;;5.80;;
25717;SDS011;13574;52.040;5.692;2023-04-01T19:18:43;8.77;;;5.53;;
25717;SDS011;13574;52.040;5.692;2023-04-01T19:21:19;10.35;;;6.18;;
25717;SDS011;13574;52.040;5.692;2023-04-01T19:23:56;10.52;;;6.38;;
25717;SDS011;13574;52.040;5.692;2023-04-01T19:26:46;8.43;;;6.05;;
25717;SDS011;13574;52.040;5.692;2023-04-01T19:32:31;8.23;;;5.72;;
25717;SDS011;13574;52.040;5.692;2023-04-01T20:01:24;11.50;;;7.60;;
25717;SDS011;13574;52.040;5.692;2023-04-01T20:04:13;9.98;;;6.90;;
25717;SDS011;13574;52.040;5.692;2023-04-01T20:09:58;9.98;;;6.55;;
25717;SDS011;13574;52.040;5.692;2023-04-01T20:12:42;10.25;;;7.10;;
25717;SDS011;13574;52.040;5.692;2023-04-01T20:15:26;11.60;;;7.32;;
25717;SDS011;13574;52.040;5.692;2023-04-01T20:17:59;11.65;;;7.82;;
25717;SDS011;13574;52.040;5.692;2023-04-01T20:20:28;13.82;;;9.27;;
25717;SDS011;13574;52.040;5.692;2023-04-01T20:25:41;18.38;;;10.48;;
25717;SDS011;13574;52.040;5.692;2023-04-01T20:44:12;18.92;;;11.80;;
25717;SDS011;13574;52.040;5.692;2023-04-01T20:51:46;19.40;;;12.52;;
25717;SDS011;13574;52.040;5.692;2023-04-01T20:54:46;18.27;;;11.40;;
25717;SDS011;13574;52.040;5.692;2023-04-01T20:57:52;20.85;;;12.63;;
25717;SDS011;13574;52.040;5.692;2023-04-01T21:03:10;20.92;;;12.40;;
25717;SDS011;13574;52.040;5.692;2023-04-01T21:17:42;18.58;;;11.77;;
25717;SDS011;13574;52.040;5.692;2023-04-01T21:26:05;18.10;;;11.90;;
25717;SDS011;13574;52.040;5.692;2023-04-01T21:37:18;12.43;;;7.60;;
25717;SDS011;13574;52.040;5.692;2023-04-01T21:39:58;15.40;;;10.32;;
25717;SDS011;13574;52.040;5.692;2023-04-01T21:48:34;15.90;;;9.63;;
25717;SDS011;13574;52.040;5.692;2023-04-01T22:00:32;16.08;;;10.18;;
25717;SDS011;13574;52.040;5.692;2023-04-01T22:06:17;16.73;;;10.23;;
25717;SDS011;13574;52.040;5.692;2023-04-01T22:11:38;15.23;;;9.30;;
25717;SDS011;13574;52.040;5.692;2023-04-01T22:14:18;16.80;;;10.60;;
25717;SDS011;13574;52.040;5.692;2023-04-01T22:22:52;15.73;;;10.20;;
25717;SDS011;13574;52.040;5.692;2023-04-01T22:25:22;17.70;;;10.98;;
25717;SDS011;13574;52.040;5.692;2023-04-01T22:27:57;15.80;;;10.05;;
25717;SDS011;13574;52.040;5.692;2023-04-01T22:30:32;17.67;;;10.95;;
25717;SDS011;13574;52.040;5.692;2023-04-01T22:33:16;16.45;;;10.55;;
25717;SDS011;13574;52.040;5.692;2023-04-01T22:41:48;19.17;;;11.02;;
25717;SDS011;13574;52.040;5.692;2023-04-01T22:44:42;13.18;;;8.13;;
25717;SDS011;13574;52.040;5.692;2023-04-01T22:50:18;18.42;;;11.95;;
25717;SDS011;13574;52.040;5.692;2023-04-01T22:52:48;18.65;;;12.73;;
25717;SDS011;13574;52.040;5.692;2023-04-01T22:55:22;19.10;;;11.88;;
25717;SDS011;13574;52.040;5.692;2023-04-01T22:57:52;19.58;;;12.35;;
25717;SDS011;13574;52.040;5.692;2023-04-01T23:00:27;19.77;;;12.48;;
25717;SDS011;13574;52.040;5.692;2023-04-01T23:03:11;18.15;;;12.02;;
25717;SDS011;13574;52.040;5.692;2023-04-01T23:05:51;21.08;;;12.55;;
25717;SDS011;13574;52.040;5.692;2023-04-01T23:11:37;20.67;;;13.23;;
25717;SDS011;13574;52.040;5.692;2023-04-01T23:24:50;20.17;;;13.38;;
25717;SDS011;13574;52.040;5.692;2023-04-01T23:38:24;19.27;;;12.73;;
25717;SDS011;13574;52.040;5.692;2023-04-01T23:40:51;19.13;;;11.23;;
25717;SDS011;13574;52.040;5.692;2023-04-01T23:46:01;18.42;;;12.98;;
25717;SDS011;13574;52.040;5.692;2023-04-01T23:48:41;19.20;;;12.07;;
25717;SDS011;13574;52.040;5.692;2023-04-01T23:51:13;17.00;;;11.80;;
25717;SDS011;13574;52.040;5.692;2023-04-01T23:53:45;20.65;;;13.25;;
25717;SDS011;13574;52.040;5.692;2023-04-01T23:56:12;20.90;;;12.93;;
25717;SDS011;13574;52.040;5.692;2023-04-01T23:58:43;21.13;;;12.60;;
